Time;durP1;ratioP1;P1;durP2;ratioP2;P2;SDS_P1;SDS_P2;PMS_P1;PMS_P2;Temp;Humidity;BMP_temperature;BMP_pressure;BME280_temperature;BME280_humidity;BME280_pressure;Samples;Min_cycle;Max_cycle;Signal;HPM_P1;HPM_P2
2023/04/08 00:01:57;;;;;;;2.33;2.33;;;18.00;62.70;;;;;;5071854;28;43458;-76
2023/04/08 00:04:25;;;;;;;2.17;2.17;;;18.00;62.70;;;;;;5076067;28;43686;-76
2023/04/08 00:06:53;;;;;;;2.23;2.20;;;17.90;62.80;;;;;;5070699;28;44081;-75
2023/04/08 00:09:25;;;;;;;2.20;2.20;;;17.90;62.90;;;;;;5069996;28;43395;-77
2023/04/08 00:11:56;;;;;;;2.10;2.10;;;17.90;63.10;;;;;;5079455;28;43447;-78
2023/04/08 00:14:24;;;;;;;2.63;2.53;;;17.80;63.20;;;;;;5072303;28;43680;-76
2023/04/08 00:16:52;;;;;;;2.33;2.30;;;17.80;63.00;;;;;;5075143;28;43751;-76
2023/04/08 00:19:20;;;;;;;2.10;2.10;;;17.90;63.20;;;;;;5075317;28;43444;-76
2023/04/08 00:21:48;;;;;;;2.10;2.10;;;17.80;63.20;;;;;;5077897;28;43427;-75
2023/04/08 00:24:16;;;;;;;2.20;2.20;;;17.80;63.20;;;;;;5079521;28;45304;-76
2023/04/08 00:26:45;;;;;;;2.23;2.23;;;17.80;63.30;;;;;;5074665;28;43486;-78
2023/04/08 00:29:13;;;;;;;2.20;2.20;;;17.80;63.40;;;;;;5062903;28;43425;-75
2023/04/08 00:31:42;;;;;;;2.30;2.30;;;17.80;63.20;;;;;;5050687;28;43569;-75
2023/04/08 00:34:10;;;;;;;2.23;2.23;;;17.90;62.90;;;;;;5069501;28;43817;-76
2023/04/08 00:36:39;;;;;;;2.67;2.67;;;18.00;62.70;;;;;;5070221;28;43441;-76
2023/04/08 00:39:08;;;;;;;2.53;2.40;;;18.00;62.80;;;;;;5077579;28;43879;-76
2023/04/08 00:41:36;;;;;;;2.57;2.53;;;17.90;62.90;;;;;;5070378;28;43471;-76
2023/04/08 00:44:07;;;;;;;2.40;2.40;;;17.90;63.00;;;;;;5072065;28;43976;-76
2023/04/08 00:46:36;;;;;;;2.50;2.50;;;17.90;62.90;;;;;;5050354;28;44366;-76
2023/04/08 00:49:04;;;;;;;2.20;2.20;;;17.90;62.90;;;;;;5072023;28;43391;-76
2023/04/08 00:51:32;;;;;;;2.37;2.37;;;17.80;63.00;;;;;;5074767;28;43418;-76
2023/04/08 00:54:00;;;;;;;2.30;2.20;;;17.90;63.20;;;;;;5051735;28;45789;-76
2023/04/08 00:56:28;;;;;;;2.60;2.60;;;17.80;63.20;;;;;;5074452;28;43416;-76
2023/04/08 00:58:56;;;;;;;2.33;2.33;;;17.80;63.30;;;;;;5071839;28;43415;-76
2023/04/08 01:01:29;;;;;;;2.37;2.33;;;17.80;63.10;;;;;;5061163;28;43399;-72
2023/04/08 01:04:02;;;;;;;2.20;2.20;;;17.80;63.10;;;;;;5104334;22;43691;-78
2023/04/08 01:06:32;;;;;;;2.63;2.60;;;17.80;63.20;;;;;;5088270;27;44667;-78
2023/04/08 01:09:00;;;;;;;2.33;2.33;;;17.80;63.30;;;;;;5074457;28;43363;-80
2023/04/08 01:11:28;;;;;;;2.50;2.40;;;17.80;63.40;;;;;;5088871;27;43611;-79
2023/04/08 01:13:56;;;;;;;2.70;2.60;;;17.80;63.30;;;;;;5088830;27;45494;-80
2023/04/08 01:16:26;;;;;;;2.43;2.40;;;17.80;63.10;;;;;;5107283;27;43501;-80
2023/04/08 01:18:54;;;;;;;2.40;2.40;;;17.90;62.80;;;;;;5110283;27;43431;-79
2023/04/08 01:21:22;;;;;;;2.20;2.20;;;18.00;62.60;;;;;;5084697;27;43581;-78
2023/04/08 01:23:54;;;;;;;2.33;2.33;;;18.00;62.50;;;;;;5109615;27;43863;-79
2023/04/08 01:26:25;;;;;;;2.80;2.70;;;18.00;62.70;;;;;;5086079;28;44915;-79
2023/04/08 01:28:54;;;;;;;2.67;2.57;;;17.90;62.70;;;;;;5108503;27;43383;-78
2023/04/08 01:31:24;;;;;;;2.30;2.30;;;17.90;62.50;;;;;;5090678;27;43424;-78
2023/04/08 01:33:52;;;;;;;2.40;2.40;;;17.90;62.60;;;;;;5104453;27;44027;-79
2023/04/08 01:36:22;;;;;;;2.53;2.50;;;17.90;62.80;;;;;;5083522;27;44925;-78
2023/04/08 01:38:50;;;;;;;2.50;2.50;;;17.90;62.90;;;;;;5109362;27;43461;-78
2023/04/08 01:41:18;;;;;;;2.63;2.63;;;17.80;62.90;;;;;;5109187;27;43524;-78
2023/04/08 01:43:48;;;;;;;2.67;2.67;;;17.80;63.00;;;;;;5090767;27;46482;-78
2023/04/08 01:46:16;;;;;;;2.80;2.70;;;17.90;63.00;;;;;;5089614;27;43455;-79
2023/04/08 01:48:44;;;;;;;2.80;2.80;;;17.90;62.80;;;;;;5109088;27;43381;-79
2023/04/08 01:51:12;;;;;;;2.60;2.60;;;18.00;62.60;;;;;;5091307;27;43603;-78
2023/04/08 01:53:42;;;;;;;2.47;2.37;;;18.00;62.70;;;;;;5089949;27;45706;-78
2023/04/08 01:56:12;;;;;;;2.50;2.50;;;18.00;62.80;;;;;;5090272;27;45447;-78
2023/04/08 01:58:43;;;;;;;2.50;2.50;;;17.90;62.90;;;;;;5071620;27;43423;-78
2023/04/08 02:01:17;;;;;;;2.30;2.30;;;17.90;62.80;;;;;;5085828;27;44092;-79
2023/04/08 02:03:45;;;;;;;2.33;2.33;;;17.90;62.80;;;;;;5076727;27;45904;-78
2023/04/08 02:06:14;;;;;;;2.40;2.40;;;17.90;62.90;;;;;;5093827;27;43888;-78
2023/04/08 02:08:42;;;;;;;2.83;2.80;;;17.80;62.90;;;;;;5099325;27;43408;-79
2023/04/08 02:11:10;;;;;;;2.63;2.57;;;17.80;63.00;;;;;;5073744;27;43535;-80
2023/04/08 02:13:38;;;;;;;2.30;2.20;;;17.80;63.10;;;;;;5096580;27;43931;-77
2023/04/08 02:16:09;;;;;;;2.80;2.70;;;17.80;62.90;;;;;;5076287;27;44284;-78
2023/04/08 02:18:39;;;;;;;2.33;2.27;;;17.80;63.00;;;;;;5072878;27;43379;-80
2023/04/08 02:21:09;;;;;;;2.30;2.30;;;17.80;63.10;;;;;;5078372;27;43578;-78
2023/04/08 02:23:38;;;;;;;2.40;2.40;;;17.80;63.10;;;;;;5095582;27;43738;-81
2023/04/08 02:26:08;;;;;;;2.33;2.33;;;17.80;63.20;;;;;;5093286;27;44837;-81
2023/04/08 02:28:36;;;;;;;2.83;2.73;;;17.80;63.20;;;;;;5076745;27;43438;-79
2023/04/08 02:31:05;;;;;;;2.40;2.40;;;17.90;62.90;;;;;;5091463;27;43570;-77
2023/04/08 02:33:34;;;;;;;2.70;2.70;;;18.00;62.70;;;;;;5092787;27;43835;-79
2023/04/08 02:36:03;;;;;;;2.73;2.67;;;18.00;62.40;;;;;;5097721;27;43332;-80
2023/04/08 02:38:31;;;;;;;2.83;2.80;;;18.00;62.30;;;;;;5095751;27;43434;-78
2023/04/08 02:40:59;;;;;;;2.60;2.60;;;18.00;62.40;;;;;;5076063;27;43955;-78
2023/04/08 02:43:31;;;;;;;2.53;2.53;;;18.00;62.60;;;;;;5072150;27;46375;-80
2023/04/08 02:46:02;;;;;;;2.10;2.10;;;18.00;62.50;;;;;;5072871;28;45098;-77
2023/04/08 02:48:30;;;;;;;2.30;2.30;;;17.90;62.50;;;;;;5073132;28;43426;-78
2023/04/08 02:50:58;;;;;;;2.60;2.60;;;17.90;62.60;;;;;;5080302;27;44043;-79
2023/04/08 02:53:27;;;;;;;2.40;2.30;;;17.90;62.80;;;;;;5073379;28;45850;-81
2023/04/08 02:55:55;;;;;;;2.47;2.40;;;17.80;62.90;;;;;;5071501;27;45165;-79
2023/04/08 02:58:26;;;;;;;2.93;2.87;;;17.80;62.90;;;;;;5098332;27;43438;-78
2023/04/08 03:00:54;;;;;;;2.37;2.23;;;17.80;62.80;;;;;;5095950;27;43541;-79
2023/04/08 03:03:26;;;;;;;2.60;2.50;;;17.80;62.90;;;;;;5074571;28;45000;-78
2023/04/08 03:05:54;;;;;;;2.30;2.30;;;17.80;62.90;;;;;;5070630;27;44690;-78
2023/04/08 03:08:23;;;;;;;2.30;2.20;;;17.80;63.00;;;;;;5075299;27;43498;-79
2023/04/08 03:10:52;;;;;;;2.70;2.70;;;17.80;63.80;;;;;;5071899;27;43539;-79
2023/04/08 03:13:20;;;;;;;2.40;2.40;;;17.80;63.10;;;;;;5095880;27;43937;-78
2023/04/08 03:15:48;;;;;;;2.40;2.40;;;17.80;62.80;;;;;;5076548;28;45108;-78
2023/04/08 03:18:16;;;;;;;2.30;2.30;;;17.90;62.50;;;;;;5076446;28;43379;-80
2023/04/08 03:20:44;;;;;;;2.30;2.30;;;17.90;62.60;;;;;;5078426;27;43519;-81
2023/04/08 03:23:12;;;;;;;2.50;2.40;;;17.90;62.70;;;;;;5073213;28;45402;-77
2023/04/08 03:25:41;;;;;;;2.80;2.70;;;17.90;62.80;;;;;;5099602;27;43500;-79
2023/04/08 03:28:10;;;;;;;2.50;2.50;;;17.80;62.70;;;;;;5082349;27;43367;-78
2023/04/08 03:30:38;;;;;;;2.50;2.40;;;17.90;62.60;;;;;;5075607;28;43519;-78
2023/04/08 03:33:07;;;;;;;2.20;2.20;;;17.90;62.80;;;;;;5102384;27;43859;-79
2023/04/08 03:35:36;;;;;;;2.33;2.33;;;17.80;62.80;;;;;;5092724;27;43391;-80
2023/04/08 03:38:04;;;;;;;2.30;2.30;;;17.80;62.90;;;;;;5077049;27;43388;-78
2023/04/08 03:40:32;;;;;;;2.67;2.57;;;17.80;62.90;;;;;;5098381;27;43582;-79
2023/04/08 03:43:00;;;;;;;2.70;2.60;;;17.80;62.90;;;;;;5094336;27;43607;-77
2023/04/08 03:45:29;;;;;;;2.30;2.30;;;17.90;62.70;;;;;;5074839;28;44976;-80
2023/04/08 03:47:58;;;;;;;2.47;2.47;;;18.00;62.50;;;;;;5074302;27;43387;-80
2023/04/08 03:50:26;;;;;;;2.30;2.30;;;18.00;62.30;;;;;;5103293;27;43426;-77
2023/04/08 03:52:54;;;;;;;3.00;2.80;;;17.90;62.20;;;;;;5076566;28;44015;-78
2023/04/08 03:55:22;;;;;;;2.47;2.37;;;17.90;62.50;;;;;;5099947;27;43963;-79
2023/04/08 03:57:50;;;;;;;2.60;2.60;;;17.90;62.50;;;;;;5093348;27;43547;-77
2023/04/08 04:00:18;;;;;;;2.40;2.30;;;17.90;62.30;;;;;;5100171;27;43461;-76
2023/04/08 04:02:47;;;;;;;1.93;1.93;;;17.90;62.40;;;;;;5098379;27;44624;-77
2023/04/08 04:05:15;;;;;;;2.50;2.50;;;17.90;62.60;;;;;;5104116;27;43785;-78
2023/04/08 04:07:43;;;;;;;2.47;2.47;;;17.80;62.70;;;;;;5079952;28;43516;-78
2023/04/08 04:10:11;;;;;;;2.60;2.60;;;17.80;62.80;;;;;;5074630;27;43598;-78
2023/04/08 04:12:40;;;;;;;2.33;2.33;;;17.80;62.70;;;;;;5074132;27;45927;-80
2023/04/08 04:15:08;;;;;;;2.50;2.47;;;17.80;62.60;;;;;;5110477;27;44955;-79
2023/04/08 04:17:36;;;;;;;2.20;2.20;;;17.80;62.80;;;;;;5081209;28;43446;-76
2023/04/08 04:20:07;;;;;;;2.40;2.40;;;17.80;62.90;;;;;;5102529;27;43429;-78
2023/04/08 04:22:35;;;;;;;2.63;2.63;;;17.80;63.00;;;;;;5095855;27;45140;-78
2023/04/08 04:25:03;;;;;;;2.50;2.40;;;17.70;62.90;;;;;;5101728;27;43465;-79
2023/04/08 04:27:31;;;;;;;2.60;2.60;;;17.80;63.00;;;;;;5078644;27;43439;-78
2023/04/08 04:30:00;;;;;;;2.53;2.53;;;17.90;62.70;;;;;;5107321;27;43665;-78
2023/04/08 04:32:28;;;;;;;2.57;2.50;;;18.00;62.40;;;;;;5086827;27;44667;-77
2023/04/08 04:34:56;;;;;;;2.37;2.37;;;18.00;62.10;;;;;;5076410;27;44750;-76
2023/04/08 04:37:26;;;;;;;2.80;2.70;;;18.00;62.30;;;;;;5080228;27;43439;-79
2023/04/08 04:39:54;;;;;;;2.20;2.20;;;17.90;62.30;;;;;;5103592;27;43395;-79
2023/04/08 04:42:22;;;;;;;2.83;2.83;;;17.90;62.40;;;;;;5075030;27;46089;-78
2023/04/08 04:44:50;;;;;;;2.60;2.60;;;17.90;62.30;;;;;;5095324;27;44882;-79
2023/04/08 04:47:18;;;;;;;2.60;2.60;;;17.90;62.50;;;;;;5095444;27;43988;-78
2023/04/08 04:49:47;;;;;;;2.50;2.50;;;17.90;62.70;;;;;;5077358;27;43641;-79
2023/04/08 04:52:15;;;;;;;2.50;2.50;;;17.80;62.80;;;;;;5104185;27;43947;-76
2023/04/08 04:54:44;;;;;;;2.90;2.80;;;17.80;62.90;;;;;;5079253;27;44990;-77
2023/04/08 04:57:12;;;;;;;2.73;2.73;;;17.80;62.80;;;;;;5082206;27;43372;-78
2023/04/08 04:59:40;;;;;;;2.50;2.40;;;17.80;62.60;;;;;;5097960;27;43457;-78
2023/04/08 05:02:09;;;;;;;2.50;2.50;;;17.80;62.80;;;;;;5099699;27;44182;-78
2023/04/08 05:04:37;;;;;;;2.70;2.60;;;17.80;62.90;;;;;;5075113;27;43650;-77
2023/04/08 05:07:05;;;;;;;2.87;2.80;;;17.80;63.00;;;;;;5076960;27;43472;-77
2023/04/08 05:09:33;;;;;;;2.50;2.50;;;17.70;62.90;;;;;;5101129;27;43435;-77
2023/04/08 05:12:03;;;;;;;2.53;2.53;;;17.80;62.90;;;;;;5104837;27;43940;-76
2023/04/08 05:14:31;;;;;;;2.53;2.53;;;17.80;62.70;;;;;;5106318;27;43478;-76
2023/04/08 05:16:58;;;;;;;2.50;2.50;;;17.80;62.90;;;;;;5080707;27;44113;-77
2023/04/08 05:19:26;;;;;;;2.57;2.57;;;17.80;63.50;;;;;;5079198;27;43587;-77
2023/04/08 05:21:55;;;;;;;2.60;2.60;;;17.80;63.00;;;;;;5086713;27;45887;-77
2023/04/08 05:24:23;;;;;;;2.70;2.70;;;17.70;62.90;;;;;;5102728;27;43485;-77
2023/04/08 05:26:52;;;;;;;2.40;2.40;;;17.80;62.90;;;;;;5104557;27;43375;-75
2023/04/08 05:29:21;;;;;;;2.90;2.80;;;17.90;62.60;;;;;;5102502;27;43419;-77
2023/04/08 05:31:49;;;;;;;3.10;3.00;;;18.00;62.40;;;;;;5083313;27;46151;-77
2023/04/08 05:34:21;;;;;;;2.90;2.80;;;18.00;62.00;;;;;;5106030;27;43359;-78
2023/04/08 05:36:51;;;;;;;2.63;2.63;;;18.00;61.90;;;;;;5080084;27;43486;-79
2023/04/08 05:39:19;;;;;;;3.00;2.87;;;18.00;62.10;;;;;;5085185;27;43519;-77
2023/04/08 05:41:47;;;;;;;2.70;2.60;;;18.00;62.20;;;;;;5104744;27;43790;-79
2023/04/08 05:44:16;;;;;;;2.63;2.63;;;18.00;62.00;;;;;;5091065;27;44908;-76
2023/04/08 05:46:45;;;;;;;2.53;2.53;;;18.00;62.20;;;;;;5099423;27;43431;-76
2023/04/08 05:49:13;;;;;;;2.77;2.70;;;17.90;62.30;;;;;;5103143;27;43901;-78
2023/04/08 05:51:41;;;;;;;3.00;2.90;;;17.90;62.50;;;;;;5083146;27;46288;-78
2023/04/08 05:54:09;;;;;;;2.73;2.63;;;17.90;62.60;;;;;;5107866;27;43843;-78
2023/04/08 05:56:37;;;;;;;2.70;2.70;;;17.90;62.50;;;;;;5077864;27;43446;-78
2023/04/08 05:59:05;;;;;;;2.70;2.60;;;17.90;62.50;;;;;;5101945;27;43454;-78
2023/04/08 06:01:33;;;;;;;2.90;2.80;;;17.80;62.50;;;;;;5092983;27;46084;-78
2023/04/08 06:04:03;;;;;;;2.60;2.60;;;17.80;62.60;;;;;;5097556;27;43523;-75
2023/04/08 06:06:31;;;;;;;2.87;2.77;;;17.80;62.70;;;;;;5095793;27;43373;-77
2023/04/08 06:09:00;;;;;;;3.10;3.07;;;17.80;62.80;;;;;;5092153;27;43376;-78
2023/04/08 06:11:28;;;;;;;3.13;3.03;;;17.80;62.80;;;;;;5081866;27;45405;-79
2023/04/08 06:13:56;;;;;;;3.07;3.07;;;17.90;62.50;;;;;;5096385;27;43432;-79
2023/04/08 06:16:24;;;;;;;2.80;2.70;;;18.00;62.30;;;;;;5092889;27;43380;-78
2023/04/08 06:18:52;;;;;;;2.90;2.80;;;18.00;62.10;;;;;;5085101;27;44602;-76
2023/04/08 06:21:22;;;;;;;2.70;2.70;;;18.00;62.40;;;;;;5100205;27;44094;-79
2023/04/08 06:23:50;;;;;;;3.13;3.10;;;17.90;62.40;;;;;;5099619;27;43576;-77
2023/04/08 06:26:18;;;;;;;2.87;2.77;;;17.90;62.30;;;;;;5079081;27;43876;-79
2023/04/08 06:28:46;;;;;;;2.90;2.80;;;17.90;62.30;;;;;;5076578;27;43679;-76
2023/04/08 06:31:18;;;;;;;3.10;3.00;;;17.90;62.50;;;;;;5101962;27;44010;-77
2023/04/08 06:33:45;;;;;;;2.50;2.40;;;17.80;62.60;;;;;;5080646;27;45080;-77
2023/04/08 06:36:15;;;;;;;3.03;2.93;;;17.80;62.70;;;;;;5076726;27;43486;-76
2023/04/08 06:38:44;;;;;;;4.67;4.47;;;17.80;62.80;;;;;;5083381;27;43646;-76
2023/04/08 06:41:15;;;;;;;4.20;4.10;;;17.80;62.50;;;;;;5080091;27;45415;-78
2023/04/08 06:43:43;;;;;;;4.03;3.87;;;17.80;62.60;;;;;;5089302;27;45132;-83
2023/04/08 06:46:11;;;;;;;4.17;4.00;;;17.80;62.70;;;;;;5097287;27;43354;-79
2023/04/08 06:48:39;;;;;;;3.80;3.70;;;17.80;62.70;;;;;;5073581;28;43605;-76
2023/04/08 06:51:07;;;;;;;3.93;3.83;;;17.70;62.70;;;;;;5091812;27;43894;-78
2023/04/08 06:53:36;;;;;;;3.80;3.70;;;17.70;62.70;;;;;;5097998;27;43467;-76
2023/04/08 06:56:05;;;;;;;4.03;3.77;;;17.80;62.80;;;;;;5099492;27;43409;-76
2023/04/08 06:58:35;;;;;;;5.63;5.10;;;17.90;62.60;;;;;;5100921;27;43433;-75
2023/04/08 07:01:03;;;;;;;5.90;5.60;;;17.90;62.50;;;;;;5092639;27;43759;-77
2023/04/08 07:03:31;;;;;;;5.40;5.00;;;18.00;61.20;;;;;;5107007;27;43410;-79
2023/04/08 07:06:01;;;;;;;4.63;4.37;;;17.90;61.80;;;;;;5089751;27;43449;-77
2023/04/08 07:08:29;;;;;;;4.90;4.60;;;17.90;62.10;;;;;;5082932;28;43677;-76
2023/04/08 07:10:58;;;;;;;4.90;4.60;;;17.90;62.00;;;;;;5100209;27;43987;-81
2023/04/08 07:13:28;;;;;;;4.83;4.63;;;17.90;61.90;;;;;;5084568;27;45332;-79
2023/04/08 07:15:56;;;;;;;5.23;4.93;;;17.90;62.10;;;;;;5099181;27;43494;-80
2023/04/08 07:18:25;;;;;;;4.47;4.27;;;17.80;62.20;;;;;;5097974;27;43489;-78
2023/04/08 07:20:53;;;;;;;5.20;5.00;;;17.80;62.30;;;;;;5083139;27;46225;-80
2023/04/08 07:23:22;;;;;;;4.93;4.53;;;17.80;62.50;;;;;;5098774;27;43414;-79
2023/04/08 07:25:50;;;;;;;5.20;4.90;;;17.80;62.50;;;;;;5069202;28;43483;-77
2023/04/08 07:28:20;;;;;;;4.50;4.30;;;17.80;62.40;;;;;;5081200;27;43650;-79
2023/04/08 07:30:50;;;;;;;4.73;4.53;;;17.80;62.50;;;;;;5099726;27;44059;-77
2023/04/08 07:33:18;;;;;;;4.57;4.47;;;17.80;62.60;;;;;;5100495;27;43406;-79
2023/04/08 07:35:46;;;;;;;5.37;4.97;;;17.70;62.60;;;;;;5076522;27;43941;-77
2023/04/08 07:38:15;;;;;;;4.83;4.60;;;17.70;62.70;;;;;;5081747;27;43464;-78
2023/04/08 07:40:43;;;;;;;5.77;5.37;;;17.70;62.60;;;;;;5103780;27;43713;-78
2023/04/08 07:43:11;;;;;;;4.80;4.60;;;17.80;62.70;;;;;;5078874;28;44133;-77
2023/04/08 07:45:40;;;;;;;5.27;4.97;;;17.90;62.20;;;;;;5083686;27;43439;-78
2023/04/08 07:48:10;;;;;;;5.47;5.17;;;17.90;62.10;;;;;;5083289;27;44018;-80
2023/04/08 07:50:38;;;;;;;5.40;5.00;;;17.90;62.20;;;;;;5076615;27;45903;-78
2023/04/08 07:53:27;;;;;;;5.50;5.00;;;17.80;62.30;;;;;;5095445;27;44006;-79
2023/04/08 07:55:55;;;;;;;5.83;5.40;;;17.80;62.30;;;;;;5078674;27;43490;-79
2023/04/08 07:58:24;;;;;;;5.57;5.17;;;17.80;62.20;;;;;;5092171;27;43492;-77
2023/04/08 08:00:52;;;;;;;5.70;5.30;;;17.80;62.40;;;;;;5093977;27;43786;-79
2023/04/08 08:03:22;;;;;;;6.00;5.50;;;17.80;62.50;;;;;;5087010;27;45129;-79
2023/04/08 08:05:50;;;;;;;8.23;6.60;;;17.80;62.60;;;;;;5092845;27;43681;-78
2023/04/08 08:08:18;;;;;;;8.50;6.33;;;17.70;62.60;;;;;;5093908;27;43439;-79
2023/04/08 08:10:46;;;;;;;7.77;6.43;;;17.80;62.60;;;;;;5079914;28;46017;-77
2023/04/08 08:13:16;;;;;;;8.53;6.27;;;17.80;62.50;;;;;;5079144;27;44901;-78
2023/04/08 08:15:44;;;;;;;7.17;6.50;;;17.80;62.60;;;;;;5082947;28;43376;-79
2023/04/08 08:18:12;;;;;;;9.47;6.63;;;17.80;62.70;;;;;;5076218;28;43587;-77
2023/04/08 08:20:41;;;;;;;12.80;7.60;;;17.80;62.80;;;;;;5092611;27;43957;-78
2023/04/08 08:23:09;;;;;;;10.50;7.40;;;17.70;62.70;;;;;;5097409;27;43431;-79
2023/04/08 08:25:37;;;;;;;10.33;7.27;;;17.80;62.90;;;;;;5093866;27;43428;-79
2023/04/08 08:28:05;;;;;;;12.10;7.93;;;17.80;62.50;;;;;;5095490;27;43435;-79
2023/04/08 08:30:33;;;;;;;12.03;7.50;;;17.90;62.30;;;;;;5075999;28;45817;-79
2023/04/08 08:33:01;;;;;;;15.70;7.93;;;18.00;62.00;;;;;;5101209;27;44099;-79
2023/04/08 08:35:30;;;;;;;12.27;7.93;;;18.00;61.90;;;;;;5088253;27;43542;-79
2023/04/08 08:38:00;;;;;;;13.97;8.37;;;17.90;62.00;;;;;;5079563;27;43585;-79
2023/04/08 08:40:28;;;;;;;10.80;7.97;;;17.90;62.20;;;;;;5093487;27;43977;-79
2023/04/08 08:42:58;;;;;;;13.23;7.80;;;17.90;62.10;;;;;;5098092;27;43980;-79
2023/04/08 08:45:26;;;;;;;13.93;8.97;;;17.90;62.20;;;;;;5096571;27;43427;-79
2023/04/08 08:47:56;;;;;;;14.50;8.83;;;17.90;62.40;;;;;;5101626;27;43427;-78
2023/04/08 08:50:24;;;;;;;16.40;8.77;;;17.80;62.50;;;;;;5100897;27;43615;-79
2023/04/08 08:52:52;;;;;;;14.00;9.07;;;17.80;62.70;;;;;;5083966;27;45073;-79
2023/04/08 08:55:21;;;;;;;15.83;9.10;;;17.80;62.70;;;;;;5074622;27;43451;-79
2023/04/08 08:57:52;;;;;;;15.40;8.60;;;17.80;62.60;;;;;;5081798;27;44575;-79
2023/04/08 09:00:30;;;;;;;12.87;7.93;;;17.80;62.80;;;;;;5102532;27;43857;-79
2023/04/08 09:03:17;;;;;;;14.93;8.73;;;17.70;62.80;;;;;;5097830;27;43474;-78
2023/04/08 09:05:53;;;;;;;16.67;9.27;;;17.70;62.90;;;;;;5072033;28;43433;-79
2023/04/08 09:08:30;;;;;;;16.00;9.37;;;17.70;63.00;;;;;;5095740;27;43422;-79
2023/04/08 09:11:12;;;;;;;15.63;9.00;;;17.70;63.60;;;;;;5109290;27;44088;-78
2023/04/08 09:13:40;;;;;;;16.77;9.07;;;17.70;62.80;;;;;;5083471;27;44836;-80
2023/04/08 09:16:09;;;;;;;13.73;8.93;;;17.70;62.90;;;;;;5097233;27;43963;-79
2023/04/08 09:18:37;;;;;;;16.30;9.43;;;17.70;63.00;;;;;;5095234;27;43460;-78
2023/04/08 09:21:06;;;;;;;14.60;8.87;;;17.70;63.00;;;;;;5098571;27;43626;-78
2023/04/08 09:23:39;;;;;;;14.20;9.30;;;17.70;63.10;;;;;;5079943;27;44637;-78
2023/04/08 09:26:12;;;;;;;16.07;9.40;;;17.70;63.00;;;;;;5096198;27;43493;-78
2023/04/08 09:28:40;;;;;;;16.30;8.80;;;17.80;62.90;;;;;;5076984;27;44423;-78
2023/04/08 09:31:21;;;;;;;15.27;8.87;;;17.90;62.50;;;;;;5076110;27;45289;-78
2023/04/08 09:33:50;;;;;;;13.90;8.90;;;18.00;62.10;;;;;;5102779;27;43439;-79
2023/04/08 09:36:18;;;;;;;15.83;9.37;;;18.00;61.90;;;;;;5073484;28;43413;-79
2023/04/08 09:38:47;;;;;;;17.07;9.20;;;17.90;62.10;;;;;;5083987;27;43503;-79
2023/04/08 09:41:16;;;;;;;16.27;8.80;;;17.90;62.30;;;;;;5080421;28;46062;-78
2023/04/08 09:43:49;;;;;;;11.67;8.00;;;17.90;61.80;;;;;;5080568;27;44874;-78
2023/04/08 09:46:18;;;;;;;12.90;8.73;;;17.90;62.00;;;;;;5095846;27;43404;-76
2023/04/08 09:48:53;;;;;;;12.47;9.00;;;17.90;62.20;;;;;;5078421;27;44459;-78
2023/04/08 09:51:21;;;;;;;10.47;8.33;;;17.80;62.20;;;;;;5089960;27;44271;-78
2023/04/08 09:53:53;;;;;;;17.43;8.73;;;17.80;62.40;;;;;;5074560;27;45358;-78
2023/04/08 09:56:22;;;;;;;11.70;8.13;;;17.80;62.60;;;;;;5086351;27;43441;-77
2023/04/08 09:58:52;;;;;;;9.43;7.80;;;17.80;62.10;;;;;;5079319;27;43518;-78
2023/04/08 10:01:24;;;;;;;10.37;8.23;;;17.80;62.30;;;;;;5073550;27;46103;-76
2023/04/08 10:03:55;;;;;;;11.20;8.70;;;17.80;62.30;;;;;;5096342;27;43352;-77
2023/04/08 10:06:27;;;;;;;10.77;8.07;;;17.80;62.40;;;;;;5099452;27;43406;-77
2023/04/08 10:08:56;;;;;;;10.40;7.80;;;17.70;62.50;;;;;;5104032;27;43399;-79
2023/04/08 10:11:25;;;;;;;9.57;8.00;;;17.80;62.40;;;;;;5073015;27;45824;-77
2023/04/08 10:13:56;;;;;;;10.10;7.37;;;17.80;62.50;;;;;;5074836;27;44455;-78
2023/04/08 10:16:26;;;;;;;9.93;7.13;;;17.80;62.60;;;;;;5073650;27;44143;-79
2023/04/08 10:18:56;;;;;;;9.87;7.23;;;17.70;62.70;;;;;;5077378;27;43385;-78
2023/04/08 10:21:34;;;;;;;11.17;7.80;;;17.80;62.90;;;;;;5095048;27;43733;-78
2023/04/08 10:24:05;;;;;;;9.03;7.13;;;17.70;63.00;;;;;;5100264;27;43443;-78
2023/04/08 10:26:36;;;;;;;10.00;7.43;;;17.80;63.20;;;;;;5080379;27;43388;-78
2023/04/08 10:29:30;;;;;;;10.03;8.43;;;17.90;62.90;;;;;;5086253;27;43534;-77
2023/04/08 10:32:00;;;;;;;7.30;6.60;;;18.00;62.50;;;;;;5107781;27;45703;-78
2023/04/08 10:34:29;;;;;;;8.17;6.93;;;18.00;62.10;;;;;;5101125;27;43483;-77
2023/04/08 10:37:00;;;;;;;7.80;7.00;;;18.00;62.10;;;;;;5092255;27;43440;-75
2023/04/08 10:39:31;;;;;;;7.83;7.03;;;18.00;62.40;;;;;;5105482;27;43482;-76
2023/04/08 10:42:07;;;;;;;7.37;6.47;;;18.00;62.40;;;;;;5094792;27;44040;-77
2023/04/08 10:44:35;;;;;;;7.03;6.33;;;17.90;62.30;;;;;;5100758;27;43378;-77
2023/04/08 10:47:03;;;;;;;8.50;6.93;;;17.90;63.20;;;;;;5098779;27;43338;-76
2023/04/08 10:49:34;;;;;;;7.03;6.43;;;17.90;62.50;;;;;;5085384;27;43613;-77
2023/04/08 10:52:07;;;;;;;9.57;6.30;;;17.90;62.60;;;;;;5081173;28;46026;-79
2023/04/08 10:54:35;;;;;;;6.83;6.10;;;17.80;62.80;;;;;;5100190;27;43426;-79
2023/04/08 10:57:04;;;;;;;6.90;6.17;;;17.80;62.60;;;;;;5101389;27;43485;-79
2023/04/08 10:59:33;;;;;;;7.03;6.33;;;17.90;62.80;;;;;;5104459;27;43443;-77
2023/04/08 11:02:02;;;;;;;6.87;6.27;;;17.80;62.80;;;;;;5106575;27;43934;-76
2023/04/08 11:04:30;;;;;;;6.37;5.73;;;17.80;62.90;;;;;;5088530;27;45094;-77
2023/04/08 11:06:58;;;;;;;6.57;6.07;;;17.80;63.00;;;;;;5087193;27;43503;-76
2023/04/08 11:09:27;;;;;;;7.07;6.47;;;17.80;63.10;;;;;;5093448;27;43590;-76
2023/04/08 11:11:55;;;;;;;7.30;6.07;;;17.90;63.10;;;;;;5080825;27;45742;-77
2023/04/08 11:14:24;;;;;;;6.97;6.27;;;18.00;62.80;;;;;;5085761;27;43380;-77
2023/04/08 11:16:53;;;;;;;6.80;6.10;;;18.00;62.40;;;;;;5084844;27;43522;-78
2023/04/08 11:19:21;;;;;;;6.30;5.70;;;18.00;62.30;;;;;;5111432;27;43460;-82
2023/04/08 11:21:51;;;;;;;6.43;5.83;;;18.00;62.40;;;;;;5089729;27;45325;-79
2023/04/08 11:24:19;;;;;;;7.43;5.30;;;18.00;62.60;;;;;;5086304;27;44725;-79
2023/04/08 11:26:49;;;;;;;6.47;5.87;;;18.00;62.50;;;;;;5098368;27;43437;-75
2023/04/08 11:29:18;;;;;;;6.37;5.87;;;18.00;62.60;;;;;;5061076;27;43509;-82
2023/04/08 11:31:48;;;;;;;5.90;5.50;;;17.90;62.60;;;;;;5094646;27;43856;-78
2023/04/08 11:34:23;;;;;;;5.73;5.23;;;17.90;62.80;;;;;;5076135;27;43876;-78
2023/04/08 11:36:52;;;;;;;6.30;5.80;;;17.90;62.90;;;;;;5073764;28;43391;-77
2023/04/08 11:39:23;;;;;;;6.23;5.63;;;17.90;63.10;;;;;;5086180;27;44026;-77
2023/04/08 11:41:52;;;;;;;5.10;4.70;;;17.80;62.80;;;;;;5101352;27;43791;-78
2023/04/08 11:44:22;;;;;;;4.87;4.57;;;17.80;62.90;;;;;;5078096;27;44707;-78
2023/04/08 11:46:54;;;;;;;5.50;5.10;;;17.90;63.10;;;;;;5102736;27;44259;-79
2023/04/08 11:49:24;;;;;;;5.70;5.30;;;17.80;63.20;;;;;;5105269;27;43589;-80
2023/04/08 11:51:56;;;;;;;5.77;5.37;;;17.80;63.50;;;;;;5103864;27;43920;-79
2023/04/08 11:54:28;;;;;;;4.90;4.53;;;17.80;64.40;;;;;;5082886;27;44714;-78
2023/04/08 11:56:57;;;;;;;5.50;5.10;;;17.90;63.60;;;;;;5081896;27;44575;-79
2023/04/08 11:59:25;;;;;;;5.40;5.00;;;17.90;63.20;;;;;;5104240;27;43415;-77
2023/04/08 12:01:56;;;;;;;5.30;4.90;;;18.00;62.80;;;;;;5083968;27;45993;-78
2023/04/08 12:04:26;;;;;;;5.17;4.80;;;17.90;62.90;;;;;;5104028;27;44632;-78
2023/04/08 12:06:54;;;;;;;5.23;4.93;;;17.90;63.10;;;;;;5105004;27;44078;-78
2023/04/08 12:09:26;;;;;;;5.03;4.70;;;17.90;63.20;;;;;;5102216;27;43353;-76
2023/04/08 12:11:55;;;;;;;5.23;4.90;;;17.90;63.10;;;;;;5084528;27;45777;-78
2023/04/08 12:14:24;;;;;;;4.60;4.30;;;17.90;63.20;;;;;;5101502;27;43419;-77
2023/04/08 12:16:55;;;;;;;4.73;4.43;;;17.90;63.30;;;;;;5074343;27;43855;-78
2023/04/08 12:19:23;;;;;;;5.20;4.90;;;17.90;63.30;;;;;;5102108;27;43561;-80
2023/04/08 12:21:52;;;;;;;5.00;4.70;;;17.80;63.40;;;;;;5082996;27;44158;-79
2023/04/08 12:24:21;;;;;;;5.10;4.80;;;17.80;63.50;;;;;;5101510;27;43471;-78
2023/04/08 12:26:49;;;;;;;5.00;4.70;;;17.90;63.50;;;;;;5101053;27;43406;-78
2023/04/08 12:29:17;;;;;;;5.00;4.60;;;17.80;63.50;;;;;;5102944;27;44002;-79
2023/04/08 12:31:45;;;;;;;4.83;4.53;;;17.80;63.50;;;;;;5085458;27;44997;-78
2023/04/08 12:34:13;;;;;;;4.47;4.20;;;17.80;63.60;;;;;;5086647;27;45064;-78
2023/04/08 12:36:41;;;;;;;4.53;4.33;;;17.80;63.80;;;;;;5086982;27;43491;-77
2023/04/08 12:39:11;;;;;;;4.87;4.60;;;17.80;63.90;;;;;;5098823;27;44141;-78
2023/04/08 12:41:39;;;;;;;4.90;4.60;;;17.90;63.70;;;;;;5084091;27;46103;-78
2023/04/08 12:44:07;;;;;;;4.87;4.53;;;18.00;63.50;;;;;;5098559;27;43414;-78
2023/04/08 12:46:35;;;;;;;4.50;4.30;;;18.00;63.10;;;;;;5090736;27;43477;-79
2023/04/08 12:49:03;;;;;;;4.70;4.50;;;18.00;63.00;;;;;;5100070;27;43500;-79
2023/04/08 12:51:33;;;;;;;4.80;4.50;;;18.00;63.20;;;;;;5082859;27;44081;-78
2023/04/08 12:54:02;;;;;;;4.20;4.00;;;18.00;63.30;;;;;;5083565;27;44346;-77
2023/04/08 12:56:31;;;;;;;4.13;3.93;;;18.00;63.20;;;;;;5085966;27;43408;-78